TimeEST,TemperatureF,Dew PointF,Humidity,Sea Level PressureIn,VisibilityMPH,Wind Direction,Wind SpeedMPH,Gust SpeedMPH,PrecipitationIn,Events,Conditions,WindDirDegrees,DateUTC
12:07 AM,12.2,8.6,85,29.99,4.0,WSW,10.4,-,0.00,Snow,Light Snow,240,2014-01-23 05:07:00
12:16 AM,12.2,8.6,85,29.99,2.0,WSW,11.5,-,0.00,Snow,Light Snow,240,2014-01-23 05:16:00
12:28 AM,12.2,10.4,92,29.99,1.5,West,12.7,-,0.00,Snow,Light Snow,260,2014-01-23 05:28:00
12:35 AM,12.2,10.4,92,30.00,2.0,West,18.4,24.2,0.00,Snow,Light Snow,260,2014-01-23 05:35:00
12:44 AM,12.2,8.6,85,30.00,5.0,West,19.6,-,0.00,Snow,Light Snow,270,2014-01-23 05:44:00
12:56 AM,12.0,6.1,77,30.07,5.0,West,18.4,-,0.00,Snow,Blowing Snow,280,2014-01-23 05:56:00
1:01 AM,10.4,5.0,79,30.01,5.0,West,20.7,25.3,0.00,Snow,Blowing Snow,280,2014-01-23 06:01:00
1:06 AM,10.4,5.0,79,30.01,7.0,West,21.9,26.5,0.00,,Mostly Cloudy,280,2014-01-23 06:06:00
1:17 AM,10.4,3.2,73,30.02,5.0,WNW,17.3,24.2,0.00,Snow,Light Snow,290,2014-01-23 06:17:00
1:33 AM,10.4,3.2,73,30.02,6.0,West,19.6,-,0.00,Snow,Blowing Snow,260,2014-01-23 06:33:00
1:56 AM,8.1,2.1,77,30.11,7.0,West,16.1,27.6,0.00,,Mostly Cloudy,270,2014-01-23 06:56:00
2:56 AM,7.2,1.0,76,30.14,8.0,West,17.3,-,N/A,,Overcast,270,2014-01-23 07:56:00
3:14 AM,6.8,1.4,79,30.09,8.0,West,12.7,-,N/A,,Overcast,270,2014-01-23 08:14:00
3:22 AM,6.8,-0.4,72,30.10,8.0,West,13.8,-,N/A,,Overcast,270,2014-01-23 08:22:00
3:56 AM,5.0,0.1,80,30.18,8.0,West,15.0,-,N/A,,Overcast,280,2014-01-23 08:56:00
4:30 AM,3.2,-0.4,85,30.13,8.0,West,15.0,-,N/A,,Mostly Cloudy,270,2014-01-23 09:30:00
4:56 AM,4.1,-1.8,76,30.21,8.0,West,12.7,-,N/A,,Overcast,280,2014-01-23 09:56:00
5:56 AM,3.0,-4.0,73,30.25,8.0,West,16.1,-,N/A,,Scattered Clouds,270,2014-01-23 10:56:00
6:56 AM,1.0,-6.0,72,30.29,8.0,West,16.1,-,N/A,,Clear,280,2014-01-23 11:56:00
7:56 AM,0.1,-8.0,69,30.33,7.0,West,16.1,23.0,N/A,,Clear,280,2014-01-23 12:56:00
8:56 AM,0.1,-8.0,69,30.37,7.0,West,18.4,-,N/A,,Clear,280,2014-01-23 13:56:00
9:56 AM,0.1,-8.0,69,30.41,4.0,West,19.6,-,0.00,Snow,Blowing Snow,280,2014-01-23 14:56:00
10:05 AM,1.4,-7.6,66,30.35,4.0,West,15.0,-,0.00,Snow,Light Snow,270,2014-01-23 15:05:00
10:07 AM,1.4,-7.6,66,30.35,5.0,WNW,13.8,-,0.00,Snow,Light Snow,290,2014-01-23 15:07:00
10:17 AM,1.4,-7.6,66,30.36,5.0,WNW,16.1,21.9,0.00,Snow,Blowing Snow,290,2014-01-23 15:17:00
10:26 AM,1.4,-7.6,66,30.36,5.0,West,16.1,24.2,0.00,,Haze,280,2014-01-23 15:26:00
10:56 AM,1.0,-6.9,69,30.45,7.0,West,11.5,-,0.00,,Partly Cloudy,280,2014-01-23 15:56:00
11:56 AM,3.0,-6.9,63,30.47,8.0,West,12.7,-,N/A,,Clear,260,2014-01-23 16:56:00
12:56 PM,5.0,-4.9,64,30.47,8.0,WSW,12.7,-,N/A,,Clear,250,2014-01-23 17:56:00
1:56 PM,6.1,-4.9,61,30.49,8.0,West,17.3,-,N/A,,Clear,270,2014-01-23 18:56:00
2:56 PM,6.1,-4.9,61,30.50,8.0,West,16.1,-,N/A,,Clear,260,2014-01-23 19:56:00
3:56 PM,6.1,-6.0,58,30.52,8.0,West,13.8,-,N/A,,Scattered Clouds,260,2014-01-23 20:56:00
4:56 PM,5.0,-4.9,64,30.56,8.0,West,15.0,-,N/A,,Mostly Cloudy,260,2014-01-23 21:56:00
5:56 PM,3.0,-2.9,76,30.58,3.0,WSW,11.5,-,0.00,Snow,Light Snow,250,2014-01-23 22:56:00
6:18 PM,3.2,-2.2,78,30.50,5.0,WSW,11.5,-,0.00,Snow,Light Snow,250,2014-01-23 23:18:00
6:56 PM,4.1,-4.0,69,30.60,8.0,West,11.5,-,0.00,,Overcast,270,2014-01-23 23:56:00
7:56 PM,1.0,-6.0,72,30.61,9.0,West,13.8,-,0.00,,Scattered Clouds,280,2014-01-24 00:56:00
8:06 PM,1.4,-5.8,72,30.53,9.0,West,13.8,-,0.00,Snow,Light Snow,270,2014-01-24 01:06:00
8:15 PM,1.4,-5.8,72,30.53,8.0,West,12.7,-,0.00,Snow,Light Snow,270,2014-01-24 01:15:00
8:56 PM,1.0,-6.0,72,30.62,8.0,West,13.8,-,0.00,Snow,Light Snow,270,2014-01-24 01:56:00
9:56 PM,-0.9,-6.9,76,30.63,8.0,West,12.7,-,0.00,Snow,Light Snow,260,2014-01-24 02:56:00
10:40 PM,-0.4,-7.6,72,30.54,9.0,West,9.2,-,0.00,,Scattered Clouds,260,2014-01-24 03:40:00
10:43 PM,-0.4,-7.6,72,30.54,8.0,West,10.4,-,0.00,,Mostly Cloudy,260,2014-01-24 03:43:00
10:56 PM,-0.9,-6.9,76,30.63,9.0,West,9.2,-,0.00,,Mostly Cloudy,260,2014-01-24 03:56:00
11:03 PM,-2.2,-7.6,78,30.55,9.0,West,8.1,-,N/A,,Scattered Clouds,260,2014-01-24 04:03:00
11:38 PM,-2.2,-7.6,78,30.54,9.0,WSW,6.9,-,N/A,,Mostly Cloudy,250,2014-01-24 04:38:00
11:48 PM,-2.2,-7.6,78,30.54,9.0,WSW,6.9,-,N/A,,Partly Cloudy,250,2014-01-24 04:48:00
11:56 PM,-2.9,-8.0,79,30.63,9.0,WSW,6.9,-,N/A,,Partly Cloudy,250,2014-01-24 04:56:00